CCM200 LFKJ-EDDB
Flight info
| Callsign | CCM200 |
|---|---|
| Flight time | 1h 57m |
| Altitude | 34000 |
| Route | BTA L146 ELB L12 MAREL DCT TIPNI DCT SUMIR DCT BRENO DCT ALUTU DCT TIVDA DCT ETVIS DCT NAVEK DCT GAVLI T203 ATGUP ATGUP1R |
| Aircraft | A339/H-SADE1E2E3GHIJ3J5M1P2RWXY/LB2D1 |
Departure
| Time | 2026-05-07 19:00 |
|---|---|
| Airport | Ajaccio Napoléon Bonaparte airport (LFKJ) |
Arrival
| Time | 2026-05-07 20:57 |
|---|---|
| Airport | Berlin Brandenburg Airport (EDDB) |
| Time | Latitude | Longitude | Altitude | Speed | Heading |
|---|---|---|---|---|---|
| 2026-05-07 17:34 | 41.91950 | 8.79579 | 32 ft | 0 kts | 345° |
| 2026-05-07 18:50 | 41.91952 | 8.79578 | 5 ft | 1 kts | 347° |
| 2026-05-07 18:50 | 41.91958 | 8.79584 | 32 ft | 1 kts | 14° |
| 2026-05-07 18:50 | 41.91962 | 8.79592 | 32 ft | 1 kts | 39° |
| 2026-05-07 18:51 | 41.91962 | 8.79602 | 32 ft | 1 kts | 63° |
| 2026-05-07 18:51 | 41.91969 | 8.79622 | 32 ft | 3 kts | 65° |
| 2026-05-07 18:51 | 41.91987 | 8.79654 | 32 ft | 5 kts | 47° |
| 2026-05-07 18:51 | 41.92022 | 8.79688 | 32 ft | 7 kts | 32° |
| 2026-05-07 18:52 | 41.92072 | 8.79721 | 32 ft | 9 kts | 21° |
| 2026-05-07 18:52 | 41.92135 | 8.79756 | 32 ft | 11 kts | 24° |
| 2026-05-07 18:52 | 41.92207 | 8.79799 | 32 ft | 12 kts | 24° |
| 2026-05-07 18:52 | 41.92288 | 8.79848 | 32 ft | 13 kts | 24° |
| 2026-05-07 18:53 | 41.92377 | 8.79902 | 32 ft | 15 kts | 25° |
| 2026-05-07 18:53 | 41.92471 | 8.79963 | 32 ft | 16 kts | 25° |
| 2026-05-07 18:53 | 41.92573 | 8.80026 | 32 ft | 16 kts | 24° |
| 2026-05-07 18:53 | 41.92682 | 8.80093 | 30 ft | 18 kts | 25° |
| 2026-05-07 18:54 | 41.92789 | 8.80179 | 33 ft | 18 kts | 37° |
| 2026-05-07 18:54 | 41.92879 | 8.80294 | 33 ft | 18 kts | 45° |
| 2026-05-07 18:54 | 41.92949 | 8.80388 | 36 ft | 11 kts | 46° |
| 2026-05-07 18:54 | 41.92958 | 8.80451 | 37 ft | 0 kts | 90° |
| 2026-05-07 18:57 | 41.92958 | 8.80456 | 37 ft | 5 kts | 90° |
| 2026-05-07 18:58 | 41.92948 | 8.80540 | 37 ft | 11 kts | 89° |
| 2026-05-07 18:58 | 41.92995 | 8.80620 | 37 ft | 12 kts | 35° |
| 2026-05-07 18:58 | 41.93076 | 8.80630 | 37 ft | 12 kts | 356° |
| 2026-05-07 18:58 | 41.93125 | 8.80663 | 37 ft | 5 kts | 73° |
| 2026-05-07 18:59 | 41.93106 | 8.80681 | 38 ft | 5 kts | 149° |
| 2026-05-07 18:59 | 41.93035 | 8.80649 | 35 ft | 0 kts | 202° |
| 2026-05-07 18:59 | 41.93033 | 8.80649 | 34 ft | 2 kts | 202° |
| 2026-05-07 18:59 | 41.92908 | 8.80572 | 37 ft | 52 kts | 205° |
| 2026-05-07 19:00 | 41.92283 | 8.80181 | 30 ft | 141 kts | 205° |
| 2026-05-07 19:00 | 41.91208 | 8.79527 | 282 ft | 185 kts | 204° |
| 2026-05-07 19:00 | 41.90083 | 8.78725 | 1282 ft | 182 kts | 211° |
| 2026-05-07 19:00 | 41.88998 | 8.77797 | 2017 ft | 200 kts | 214° |
| 2026-05-07 19:01 | 41.87741 | 8.76634 | 2168 ft | 238 kts | 215° |
| 2026-05-07 19:01 | 41.86302 | 8.75281 | 2282 ft | 261 kts | 215° |
| 2026-05-07 19:01 | 41.84813 | 8.73887 | 2397 ft | 261 kts | 214° |
| 2026-05-07 19:01 | 41.83337 | 8.72529 | 2502 ft | 261 kts | 213° |
| 2026-05-07 19:02 | 41.81837 | 8.71155 | 2611 ft | 259 kts | 213° |
| 2026-05-07 19:02 | 41.80342 | 8.69790 | 2733 ft | 262 kts | 213° |
| 2026-05-07 19:02 | 41.78839 | 8.68427 | 2826 ft | 260 kts | 212° |
| 2026-05-07 19:02 | 41.77328 | 8.67074 | 3041 ft | 264 kts | 212° |
| 2026-05-07 19:03 | 41.75799 | 8.65710 | 3805 ft | 262 kts | 212° |
| 2026-05-07 19:03 | 41.74283 | 8.64356 | 4576 ft | 265 kts | 213° |
| 2026-05-07 19:03 | 41.72741 | 8.62976 | 5299 ft | 268 kts | 213° |
| 2026-05-07 19:03 | 41.71188 | 8.61583 | 6066 ft | 270 kts | 213° |
| 2026-05-07 19:04 | 41.69601 | 8.60209 | 6766 ft | 272 kts | 207° |
| 2026-05-07 19:04 | 41.67800 | 8.59557 | 7616 ft | 268 kts | 182° |
| 2026-05-07 19:04 | 41.65966 | 8.60007 | 8337 ft | 273 kts | 157° |
| 2026-05-07 19:04 | 41.64385 | 8.61433 | 8524 ft | 275 kts | 134° |
| 2026-05-07 19:05 | 41.63415 | 8.63638 | 8647 ft | 281 kts | 109° |
| 2026-05-07 19:05 | 41.63243 | 8.66255 | 8768 ft | 287 kts | 84° |
| 2026-05-07 19:05 | 41.63925 | 8.68759 | 8884 ft | 291 kts | 59° |
| 2026-05-07 19:05 | 41.65376 | 8.70676 | 9160 ft | 300 kts | 32° |
| 2026-05-07 19:06 | 41.67286 | 8.71815 | 9931 ft | 301 kts | 19° |
| 2026-05-07 19:06 | 41.71412 | 8.73832 | 10556 ft | 335 kts | 22° |
| 2026-05-07 19:06 | 41.73600 | 8.75124 | 10856 ft | 351 kts | 25° |
| 2026-05-07 19:07 | 41.75822 | 8.76477 | 11473 ft | 354 kts | 21° |
| 2026-05-07 19:07 | 41.78207 | 8.77429 | 12119 ft | 357 kts | 11° |
| 2026-05-07 19:07 | 41.80676 | 8.77846 | 12768 ft | 359 kts | 2° |
| 2026-05-07 19:07 | 41.83383 | 8.78116 | 13455 ft | 363 kts | 3° |
| 2026-05-07 19:08 | 41.85704 | 8.78369 | 14005 ft | 366 kts | 3° |
| 2026-05-07 19:08 | 41.88446 | 8.78678 | 14602 ft | 369 kts | 3° |
| 2026-05-07 19:08 | 41.90822 | 8.78949 | 15125 ft | 372 kts | 3° |
| 2026-05-07 19:08 | 41.93413 | 8.79244 | 15695 ft | 375 kts | 2° |
| 2026-05-07 19:09 | 41.96023 | 8.79538 | 16255 ft | 378 kts | 2° |
| 2026-05-07 19:09 | 41.98621 | 8.79830 | 16795 ft | 381 kts | 2° |
| 2026-05-07 19:09 | 42.01272 | 8.80129 | 17339 ft | 385 kts | 2° |
| 2026-05-07 19:09 | 42.03955 | 8.80431 | 17909 ft | 387 kts | 2° |
| 2026-05-07 19:10 | 42.06649 | 8.80734 | 18430 ft | 391 kts | 2° |
| 2026-05-07 19:10 | 42.09369 | 8.81040 | 18959 ft | 393 kts | 2° |
| 2026-05-07 19:10 | 42.12104 | 8.81349 | 19475 ft | 396 kts | 2° |
| 2026-05-07 19:10 | 42.14855 | 8.81658 | 19980 ft | 399 kts | 1° |
| 2026-05-07 19:11 | 42.17632 | 8.81978 | 20500 ft | 401 kts | 2° |
| 2026-05-07 19:11 | 42.20422 | 8.82295 | 21027 ft | 404 kts | 2° |
| 2026-05-07 19:11 | 42.23196 | 8.83048 | 21475 ft | 412 kts | 16° |
| 2026-05-07 19:11 | 42.25779 | 8.84791 | 22019 ft | 419 kts | 32° |
| 2026-05-07 19:12 | 42.27980 | 8.87404 | 22507 ft | 427 kts | 47° |
| 2026-05-07 19:12 | 42.29719 | 8.90690 | 22971 ft | 432 kts | 57° |
| 2026-05-07 19:12 | 42.31253 | 8.94202 | 23439 ft | 437 kts | 59° |
| 2026-05-07 19:12 | 42.32811 | 8.97747 | 23859 ft | 440 kts | 57° |
| 2026-05-07 19:13 | 42.34443 | 9.01267 | 24247 ft | 444 kts | 56° |
| 2026-05-07 19:13 | 42.36138 | 9.04769 | 24641 ft | 447 kts | 55° |
| 2026-05-07 19:13 | 42.37877 | 9.08281 | 25005 ft | 452 kts | 54° |
| 2026-05-07 19:13 | 42.39643 | 9.11817 | 25393 ft | 455 kts | 54° |
| 2026-05-07 19:14 | 42.41425 | 9.15379 | 25790 ft | 459 kts | 54° |
| 2026-05-07 19:14 | 42.43220 | 9.18969 | 26175 ft | 463 kts | 54° |
| 2026-05-07 19:14 | 42.45027 | 9.22596 | 26556 ft | 466 kts | 54° |
| 2026-05-07 19:14 | 42.46848 | 9.26255 | 26898 ft | 471 kts | 55° |
| 2026-05-07 19:15 | 42.48683 | 9.29948 | 27291 ft | 474 kts | 55° |
| 2026-05-07 19:15 | 42.50529 | 9.33670 | 27669 ft | 477 kts | 55° |
| 2026-05-07 19:15 | 42.52387 | 9.37423 | 28013 ft | 481 kts | 55° |
| 2026-05-07 19:15 | 42.54258 | 9.41205 | 28356 ft | 485 kts | 55° |
| 2026-05-07 19:16 | 42.56054 | 9.45093 | 28655 ft | 489 kts | 61° |
| 2026-05-07 19:16 | 42.57474 | 9.49298 | 28966 ft | 492 kts | 70° |
| 2026-05-07 19:16 | 42.58476 | 9.53747 | 29301 ft | 495 kts | 78° |
| 2026-05-07 19:16 | 42.59242 | 9.58320 | 29622 ft | 498 kts | 78° |
| 2026-05-07 19:17 | 42.60032 | 9.62910 | 29972 ft | 501 kts | 78° |
| 2026-05-07 19:17 | 42.60834 | 9.67524 | 30281 ft | 504 kts | 78° |
| 2026-05-07 19:17 | 42.61641 | 9.72175 | 30550 ft | 509 kts | 78° |
| 2026-05-07 19:17 | 42.62452 | 9.76865 | 30832 ft | 512 kts | 78° |
| 2026-05-07 19:18 | 42.63265 | 9.81584 | 31146 ft | 515 kts | 78° |
| 2026-05-07 19:18 | 42.64080 | 9.86335 | 31414 ft | 518 kts | 78° |
| 2026-05-07 19:18 | 42.64898 | 9.91118 | 31710 ft | 521 kts | 78° |
| 2026-05-07 19:18 | 42.65718 | 9.95922 | 32005 ft | 524 kts | 78° |
| 2026-05-07 19:19 | 42.66542 | 10.00755 | 32307 ft | 527 kts | 78° |
| 2026-05-07 19:19 | 42.67368 | 10.05616 | 32559 ft | 529 kts | 78° |
| 2026-05-07 19:19 | 42.68184 | 10.10447 | 32784 ft | 520 kts | 78° |
| 2026-05-07 19:19 | 42.69001 | 10.15271 | 32800 ft | 528 kts | 79° |
| 2026-05-07 19:20 | 42.69825 | 10.20158 | 32950 ft | 532 kts | 79° |
| 2026-05-07 19:20 | 42.70648 | 10.25059 | 33213 ft | 532 kts | 79° |
| 2026-05-07 19:20 | 42.71533 | 10.29947 | 33346 ft | 535 kts | 73° |
| 2026-05-07 19:20 | 42.72949 | 10.34630 | 33514 ft | 537 kts | 62° |
| 2026-05-07 19:21 | 42.74952 | 10.38910 | 33716 ft | 536 kts | 51° |
| 2026-05-07 19:21 | 42.77459 | 10.42636 | 33856 ft | 534 kts | 39° |
| 2026-05-07 19:21 | 42.80397 | 10.45692 | 33964 ft | 529 kts | 27° |
| 2026-05-07 19:21 | 42.83638 | 10.47969 | 33990 ft | 520 kts | 16° |
| 2026-05-07 19:22 | 42.87060 | 10.49385 | 33988 ft | 509 kts | 4° |
| 2026-05-07 19:22 | 42.90533 | 10.49969 | 33993 ft | 501 kts | 357° |
| 2026-05-07 19:22 | 42.97484 | 10.51274 | 33990 ft | 509 kts | 6° |
| 2026-05-07 19:23 | 43.04350 | 10.53961 | 33996 ft | 515 kts | 12° |
| 2026-05-07 19:23 | 43.10944 | 10.57024 | 33994 ft | 516 kts | 13° |
| 2026-05-07 19:24 | 43.17504 | 10.60121 | 33992 ft | 511 kts | 12° |
| 2026-05-07 19:24 | 43.24448 | 10.63372 | 33998 ft | 512 kts | 12° |
| 2026-05-07 19:25 | 43.31180 | 10.66598 | 34000 ft | 514 kts | 14° |
| 2026-05-07 19:25 | 43.37611 | 10.70165 | 34006 ft | 512 kts | 15° |
| 2026-05-07 19:26 | 43.44216 | 10.73853 | 34022 ft | 512 kts | 15° |
| 2026-05-07 19:26 | 43.50840 | 10.77492 | 34021 ft | 512 kts | 15° |
| 2026-05-07 19:27 | 43.56327 | 10.80504 | 34026 ft | 510 kts | 15° |
| 2026-05-07 19:27 | 43.62921 | 10.84127 | 34013 ft | 510 kts | 15° |
| 2026-05-07 19:28 | 43.69518 | 10.87764 | 34012 ft | 510 kts | 15° |
| 2026-05-07 19:28 | 43.76078 | 10.91393 | 34006 ft | 505 kts | 15° |
| 2026-05-07 19:29 | 43.82617 | 10.95013 | 34004 ft | 506 kts | 15° |
| 2026-05-07 19:29 | 43.89158 | 10.98643 | 34018 ft | 506 kts | 15° |
| 2026-05-07 19:30 | 43.95670 | 11.02269 | 34012 ft | 503 kts | 15° |
| 2026-05-07 19:30 | 44.02167 | 11.05893 | 34017 ft | 505 kts | 15° |
| 2026-05-07 19:31 | 44.08692 | 11.09536 | 34080 ft | 506 kts | 15° |
| 2026-05-07 19:31 | 44.15198 | 11.13186 | 34069 ft | 505 kts | 15° |
| 2026-05-07 19:32 | 44.21706 | 11.16840 | 34079 ft | 505 kts | 15° |
| 2026-05-07 19:32 | 44.28225 | 11.20336 | 34076 ft | 499 kts | 9° |
| 2026-05-07 19:33 | 44.34897 | 11.22089 | 34077 ft | 485 kts | 356° |
| 2026-05-07 19:33 | 44.41606 | 11.22553 | 34069 ft | 483 kts | 355° |
| 2026-05-07 19:34 | 44.48326 | 11.23047 | 34084 ft | 484 kts | 355° |
| 2026-05-07 19:34 | 44.55053 | 11.23530 | 34065 ft | 484 kts | 355° |
| 2026-05-07 19:35 | 44.61743 | 11.24005 | 34063 ft | 484 kts | 355° |
| 2026-05-07 19:35 | 44.68442 | 11.24478 | 34064 ft | 485 kts | 355° |
| 2026-05-07 19:36 | 44.75180 | 11.24958 | 34061 ft | 485 kts | 355° |
| 2026-05-07 19:36 | 44.81914 | 11.25438 | 34059 ft | 484 kts | 355° |
| 2026-05-07 19:37 | 44.88645 | 11.25917 | 34055 ft | 484 kts | 355° |
| 2026-05-07 19:37 | 44.95375 | 11.26400 | 34047 ft | 484 kts | 355° |
| 2026-05-07 19:38 | 45.02100 | 11.26882 | 34045 ft | 484 kts | 355° |
| 2026-05-07 19:38 | 45.08831 | 11.27365 | 34036 ft | 484 kts | 356° |
| 2026-05-07 19:39 | 45.15553 | 11.27850 | 34017 ft | 483 kts | 356° |
| 2026-05-07 19:39 | 45.22268 | 11.28335 | 34029 ft | 483 kts | 356° |
| 2026-05-07 19:40 | 45.28977 | 11.28820 | 34013 ft | 482 kts | 356° |
| 2026-05-07 19:40 | 45.35679 | 11.29308 | 34004 ft | 482 kts | 356° |
| 2026-05-07 19:41 | 45.42372 | 11.29794 | 34012 ft | 481 kts | 356° |
| 2026-05-07 19:41 | 45.49061 | 11.30282 | 34003 ft | 481 kts | 356° |
| 2026-05-07 19:42 | 45.55744 | 11.30771 | 33983 ft | 481 kts | 356° |
| 2026-05-07 19:42 | 45.62414 | 11.31260 | 34016 ft | 480 kts | 356° |
| 2026-05-07 19:43 | 45.69084 | 11.31749 | 34021 ft | 479 kts | 356° |
| 2026-05-07 19:43 | 45.75744 | 11.32240 | 34010 ft | 479 kts | 356° |
| 2026-05-07 19:44 | 45.82399 | 11.32733 | 34034 ft | 479 kts | 356° |
| 2026-05-07 19:44 | 45.89052 | 11.33221 | 34045 ft | 478 kts | 356° |
| 2026-05-07 19:45 | 45.95701 | 11.33712 | 34054 ft | 478 kts | 356° |
| 2026-05-07 19:45 | 46.02349 | 11.34212 | 34066 ft | 479 kts | 356° |
| 2026-05-07 19:46 | 46.08993 | 11.34708 | 34049 ft | 478 kts | 356° |
| 2026-05-07 19:46 | 46.15632 | 11.35200 | 34056 ft | 478 kts | 356° |
| 2026-05-07 19:47 | 46.22273 | 11.35697 | 34049 ft | 478 kts | 356° |
| 2026-05-07 19:47 | 46.28907 | 11.36142 | 34041 ft | 476 kts | 354° |
| 2026-05-07 19:48 | 46.35515 | 11.36248 | 34042 ft | 475 kts | 353° |
| 2026-05-07 19:48 | 46.42123 | 11.36354 | 33982 ft | 475 kts | 354° |
| 2026-05-07 19:49 | 46.48737 | 11.36499 | 33969 ft | 476 kts | 354° |
| 2026-05-07 19:49 | 46.55357 | 11.36659 | 33975 ft | 476 kts | 354° |
| 2026-05-07 19:50 | 46.61926 | 11.36824 | 34010 ft | 473 kts | 354° |
| 2026-05-07 19:50 | 46.68527 | 11.36966 | 34000 ft | 474 kts | 354° |
| 2026-05-07 19:51 | 46.75117 | 11.37122 | 34018 ft | 474 kts | 354° |
| 2026-05-07 19:51 | 46.81710 | 11.37281 | 34036 ft | 474 kts | 354° |
| 2026-05-07 19:52 | 46.88307 | 11.37433 | 34038 ft | 473 kts | 355° |
| 2026-05-07 19:52 | 46.94892 | 11.37642 | 34022 ft | 474 kts | 358° |
| 2026-05-07 19:53 | 47.01413 | 11.39280 | 34029 ft | 485 kts | 10° |
| 2026-05-07 19:53 | 47.07919 | 11.42307 | 34045 ft | 487 kts | 12° |
| 2026-05-07 19:54 | 47.14324 | 11.45273 | 34048 ft | 486 kts | 12° |
| 2026-05-07 19:54 | 47.20795 | 11.48290 | 34046 ft | 487 kts | 12° |
| 2026-05-07 19:55 | 47.27246 | 11.51313 | 34046 ft | 486 kts | 13° |
| 2026-05-07 19:55 | 47.33680 | 11.54341 | 34036 ft | 485 kts | 13° |
| 2026-05-07 19:56 | 47.40109 | 11.57373 | 34052 ft | 486 kts | 13° |
| 2026-05-07 19:56 | 47.46556 | 11.60416 | 34050 ft | 485 kts | 13° |
| 2026-05-07 19:57 | 47.52990 | 11.63467 | 34061 ft | 487 kts | 13° |
| 2026-05-07 19:57 | 47.59415 | 11.66523 | 34058 ft | 486 kts | 13° |
| 2026-05-07 19:58 | 47.65902 | 11.69612 | 34060 ft | 485 kts | 13° |
| 2026-05-07 19:58 | 47.72291 | 11.72664 | 34048 ft | 485 kts | 13° |
| 2026-05-07 19:59 | 47.78722 | 11.75743 | 34063 ft | 486 kts | 13° |
| 2026-05-07 19:59 | 47.85157 | 11.78832 | 34073 ft | 486 kts | 14° |
| 2026-05-07 20:00 | 47.91590 | 11.81930 | 34058 ft | 486 kts | 14° |
| 2026-05-07 20:00 | 47.98022 | 11.85037 | 34061 ft | 485 kts | 14° |
| 2026-05-07 20:01 | 48.04447 | 11.88146 | 34073 ft | 485 kts | 14° |
| 2026-05-07 20:01 | 48.10829 | 11.91242 | 34069 ft | 486 kts | 14° |
| 2026-05-07 20:02 | 48.17255 | 11.94369 | 34072 ft | 486 kts | 14° |
| 2026-05-07 20:02 | 48.23637 | 11.97482 | 34073 ft | 486 kts | 14° |
| 2026-05-07 20:03 | 48.30062 | 12.00624 | 34070 ft | 486 kts | 14° |
| 2026-05-07 20:03 | 48.36493 | 12.03778 | 34072 ft | 486 kts | 14° |
| 2026-05-07 20:04 | 48.42918 | 12.06938 | 34069 ft | 486 kts | 14° |
| 2026-05-07 20:04 | 48.49308 | 12.10089 | 34070 ft | 486 kts | 15° |
| 2026-05-07 20:05 | 48.55631 | 12.13745 | 34065 ft | 487 kts | 18° |
| 2026-05-07 20:05 | 48.61961 | 12.17399 | 34068 ft | 487 kts | 18° |
| 2026-05-07 20:06 | 48.68285 | 12.21065 | 34073 ft | 487 kts | 18° |
| 2026-05-07 20:06 | 48.74613 | 12.24754 | 34074 ft | 487 kts | 18° |
| 2026-05-07 20:07 | 48.80931 | 12.28449 | 34069 ft | 487 kts | 18° |
| 2026-05-07 20:07 | 48.87246 | 12.32152 | 34077 ft | 486 kts | 18° |
| 2026-05-07 20:08 | 48.93561 | 12.35863 | 34072 ft | 486 kts | 18° |
| 2026-05-07 20:08 | 48.99870 | 12.39582 | 34069 ft | 486 kts | 18° |
| 2026-05-07 20:09 | 49.06190 | 12.43318 | 34062 ft | 489 kts | 18° |
| 2026-05-07 20:10 | 49.14662 | 12.48341 | 34058 ft | 488 kts | 18° |
| 2026-05-07 20:10 | 49.20953 | 12.52083 | 34056 ft | 488 kts | 19° |
| 2026-05-07 20:11 | 49.27280 | 12.55857 | 34056 ft | 488 kts | 19° |
| 2026-05-07 20:11 | 49.33602 | 12.59638 | 34050 ft | 487 kts | 19° |
| 2026-05-07 20:12 | 49.39901 | 12.63417 | 34033 ft | 486 kts | 19° |
| 2026-05-07 20:12 | 49.46110 | 12.67492 | 34026 ft | 486 kts | 24° |
| 2026-05-07 20:13 | 49.52209 | 12.72006 | 34033 ft | 486 kts | 23° |
| 2026-05-07 20:13 | 49.58307 | 12.76494 | 34026 ft | 486 kts | 24° |
| 2026-05-07 20:14 | 49.64482 | 12.80685 | 34019 ft | 483 kts | 16° |
| 2026-05-07 20:14 | 49.71001 | 12.83010 | 34028 ft | 480 kts | 5° |
| 2026-05-07 20:15 | 49.77616 | 12.84513 | 34021 ft | 481 kts | 6° |
| 2026-05-07 20:15 | 49.84228 | 12.86068 | 34026 ft | 481 kts | 6° |
| 2026-05-07 20:16 | 49.90853 | 12.87611 | 34031 ft | 481 kts | 6° |
| 2026-05-07 20:16 | 49.97478 | 12.89146 | 34035 ft | 482 kts | 6° |
| 2026-05-07 20:17 | 50.04108 | 12.90688 | 34036 ft | 482 kts | 6° |
| 2026-05-07 20:17 | 50.10743 | 12.92237 | 34044 ft | 482 kts | 7° |
| 2026-05-07 20:18 | 50.17378 | 12.93788 | 34038 ft | 482 kts | 7° |
| 2026-05-07 20:18 | 50.23970 | 12.95340 | 34054 ft | 481 kts | 7° |
| 2026-05-07 20:19 | 50.30473 | 12.98138 | 34049 ft | 484 kts | 20° |
| 2026-05-07 20:19 | 50.36504 | 13.02665 | 34040 ft | 485 kts | 25° |
| 2026-05-07 20:20 | 50.42556 | 13.07427 | 34051 ft | 487 kts | 25° |
| 2026-05-07 20:20 | 50.48608 | 13.12213 | 34051 ft | 487 kts | 25° |
| 2026-05-07 20:21 | 50.54650 | 13.17033 | 34046 ft | 487 kts | 26° |
| 2026-05-07 20:21 | 50.60681 | 13.21881 | 34058 ft | 487 kts | 26° |
| 2026-05-07 20:22 | 50.66717 | 13.26745 | 34056 ft | 487 kts | 26° |
| 2026-05-07 20:22 | 50.72748 | 13.31617 | 34058 ft | 487 kts | 26° |
| 2026-05-07 20:23 | 50.78785 | 13.36508 | 34060 ft | 487 kts | 26° |
| 2026-05-07 20:23 | 50.84812 | 13.41405 | 34074 ft | 487 kts | 26° |
| 2026-05-07 20:24 | 50.90856 | 13.46233 | 34066 ft | 486 kts | 22° |
| 2026-05-07 20:24 | 50.97277 | 13.49473 | 34071 ft | 484 kts | 10° |
| 2026-05-07 20:25 | 51.03894 | 13.51260 | 33651 ft | 480 kts | 8° |
| 2026-05-07 20:25 | 51.07183 | 13.52160 | 32869 ft | 479 kts | 9° |
| 2026-05-07 20:25 | 51.10459 | 13.53059 | 31846 ft | 478 kts | 9° |
| 2026-05-07 20:25 | 51.13730 | 13.53952 | 30633 ft | 477 kts | 9° |
| 2026-05-07 20:26 | 51.16994 | 13.54838 | 29335 ft | 473 kts | 9° |
| 2026-05-07 20:26 | 51.20218 | 13.55712 | 28322 ft | 467 kts | 9° |
| 2026-05-07 20:26 | 51.23391 | 13.56572 | 27684 ft | 457 kts | 9° |
| 2026-05-07 20:26 | 51.26479 | 13.57411 | 27327 ft | 442 kts | 9° |
| 2026-05-07 20:27 | 51.29475 | 13.58224 | 26780 ft | 433 kts | 9° |
| 2026-05-07 20:27 | 51.32423 | 13.59026 | 26182 ft | 426 kts | 9° |
| 2026-05-07 20:27 | 51.35600 | 13.59891 | 25536 ft | 419 kts | 9° |
| 2026-05-07 20:27 | 51.38180 | 13.60595 | 25022 ft | 414 kts | 9° |
| 2026-05-07 20:28 | 51.40995 | 13.61364 | 24462 ft | 408 kts | 9° |
| 2026-05-07 20:28 | 51.43774 | 13.62124 | 23900 ft | 402 kts | 9° |
| 2026-05-07 20:28 | 51.46514 | 13.62875 | 23297 ft | 396 kts | 9° |
| 2026-05-07 20:28 | 51.49203 | 13.63615 | 22736 ft | 389 kts | 9° |
| 2026-05-07 20:29 | 51.51842 | 13.64346 | 22212 ft | 381 kts | 9° |
| 2026-05-07 20:29 | 51.54427 | 13.65062 | 21677 ft | 374 kts | 9° |
| 2026-05-07 20:29 | 51.57014 | 13.65794 | 21141 ft | 389 kts | 11° |
| 2026-05-07 20:29 | 51.60006 | 13.66887 | 20503 ft | 412 kts | 12° |
| 2026-05-07 20:30 | 51.62548 | 13.67823 | 19974 ft | 416 kts | 12° |
| 2026-05-07 20:30 | 51.65366 | 13.68856 | 19368 ft | 414 kts | 12° |
| 2026-05-07 20:30 | 51.68159 | 13.69879 | 18765 ft | 408 kts | 12° |
| 2026-05-07 20:30 | 51.70863 | 13.70871 | 18126 ft | 400 kts | 12° |
| 2026-05-07 20:31 | 51.73570 | 13.71865 | 17569 ft | 388 kts | 12° |
| 2026-05-07 20:31 | 51.76131 | 13.72807 | 17008 ft | 378 kts | 12° |
| 2026-05-07 20:31 | 51.78660 | 13.73738 | 16464 ft | 368 kts | 12° |
| 2026-05-07 20:31 | 51.81126 | 13.74647 | 15918 ft | 360 kts | 12° |
| 2026-05-07 20:32 | 51.83541 | 13.75538 | 15391 ft | 352 kts | 12° |
| 2026-05-07 20:32 | 51.85904 | 13.76411 | 14874 ft | 346 kts | 12° |
| 2026-05-07 20:32 | 51.88341 | 13.77268 | 14333 ft | 373 kts | 8° |
| 2026-05-07 20:32 | 51.90983 | 13.77271 | 13773 ft | 386 kts | 351° |
| 2026-05-07 20:33 | 51.93543 | 13.75986 | 13178 ft | 385 kts | 334° |
| 2026-05-07 20:33 | 51.95722 | 13.73566 | 12649 ft | 376 kts | 316° |
| 2026-05-07 20:33 | 51.97291 | 13.70290 | 12144 ft | 362 kts | 299° |
| 2026-05-07 20:33 | 51.98389 | 13.66698 | 11606 ft | 349 kts | 295° |
| 2026-05-07 20:34 | 51.99435 | 13.63216 | 11108 ft | 338 kts | 297° |
| 2026-05-07 20:34 | 52.00558 | 13.59928 | 10625 ft | 328 kts | 301° |
| 2026-05-07 20:34 | 52.01734 | 13.56866 | 10413 ft | 310 kts | 303° |
| 2026-05-07 20:34 | 52.02908 | 13.54055 | 10109 ft | 295 kts | 306° |
| 2026-05-07 20:35 | 52.04133 | 13.51411 | 9589 ft | 289 kts | 308° |
| 2026-05-07 20:35 | 52.05350 | 13.48874 | 9387 ft | 285 kts | 308° |
| 2026-05-07 20:35 | 52.06575 | 13.46314 | 9250 ft | 287 kts | 308° |
| 2026-05-07 20:35 | 52.07788 | 13.43747 | 9116 ft | 286 kts | 308° |
| 2026-05-07 20:36 | 52.08986 | 13.41189 | 9014 ft | 282 kts | 308° |
| 2026-05-07 20:36 | 52.10147 | 13.38691 | 8921 ft | 270 kts | 308° |
| 2026-05-07 20:36 | 52.11245 | 13.36319 | 8683 ft | 257 kts | 308° |
| 2026-05-07 20:36 | 52.12304 | 13.34029 | 8364 ft | 248 kts | 308° |
| 2026-05-07 20:37 | 52.13351 | 13.31771 | 8238 ft | 252 kts | 308° |
| 2026-05-07 20:37 | 52.14404 | 13.29498 | 8108 ft | 250 kts | 308° |
| 2026-05-07 20:37 | 52.15452 | 13.27234 | 7881 ft | 251 kts | 308° |
| 2026-05-07 20:37 | 52.16501 | 13.24961 | 7446 ft | 250 kts | 308° |
| 2026-05-07 20:38 | 52.17538 | 13.22712 | 6995 ft | 247 kts | 309° |
| 2026-05-07 20:38 | 52.18478 | 13.20388 | 6543 ft | 247 kts | 294° |
| 2026-05-07 20:38 | 52.18736 | 13.17658 | 6275 ft | 248 kts | 264° |
| 2026-05-07 20:38 | 52.18244 | 13.14948 | 6259 ft | 250 kts | 248° |
| 2026-05-07 20:39 | 52.17538 | 13.12390 | 6209 ft | 244 kts | 244° |
| 2026-05-07 20:39 | 52.16835 | 13.09939 | 6046 ft | 235 kts | 245° |
| 2026-05-07 20:39 | 52.16178 | 13.07528 | 5655 ft | 232 kts | 247° |
| 2026-05-07 20:39 | 52.15556 | 13.05112 | 5213 ft | 231 kts | 248° |
| 2026-05-07 20:40 | 52.14958 | 13.02691 | 4770 ft | 230 kts | 249° |
| 2026-05-07 20:40 | 52.14371 | 13.00271 | 4333 ft | 229 kts | 249° |
| 2026-05-07 20:40 | 52.13789 | 12.97858 | 3896 ft | 229 kts | 249° |
| 2026-05-07 20:40 | 52.13207 | 12.95449 | 3464 ft | 229 kts | 249° |
| 2026-05-07 20:41 | 52.12628 | 12.93061 | 3192 ft | 221 kts | 249° |
| 2026-05-07 20:41 | 52.12079 | 12.90802 | 3070 ft | 209 kts | 249° |
| 2026-05-07 20:41 | 52.11555 | 12.88652 | 2979 ft | 199 kts | 249° |
| 2026-05-07 20:41 | 52.11060 | 12.86626 | 2985 ft | 190 kts | 249° |
| 2026-05-07 20:42 | 52.10570 | 12.84618 | 2977 ft | 189 kts | 249° |
| 2026-05-07 20:42 | 52.10090 | 12.82654 | 2985 ft | 191 kts | 249° |
| 2026-05-07 20:42 | 52.09603 | 12.80663 | 2980 ft | 189 kts | 249° |
| 2026-05-07 20:42 | 52.09280 | 12.79344 | 2981 ft | 191 kts | 249° |
| 2026-05-07 20:43 | 52.08626 | 12.76677 | 2984 ft | 189 kts | 248° |
| 2026-05-07 20:43 | 52.08137 | 12.74688 | 2985 ft | 190 kts | 248° |
| 2026-05-07 20:43 | 52.07648 | 12.72699 | 2981 ft | 189 kts | 248° |
| 2026-05-07 20:43 | 52.07262 | 12.70661 | 2969 ft | 189 kts | 268° |
| 2026-05-07 20:44 | 52.07553 | 12.68618 | 2977 ft | 186 kts | 305° |
| 2026-05-07 20:44 | 52.08495 | 12.67286 | 2992 ft | 180 kts | 339° |
| 2026-05-07 20:44 | 52.09688 | 12.66652 | 2981 ft | 179 kts | 349° |
| 2026-05-07 20:44 | 52.10895 | 12.66171 | 2985 ft | 179 kts | 349° |
| 2026-05-07 20:45 | 52.12078 | 12.65627 | 2981 ft | 179 kts | 346° |
| 2026-05-07 20:45 | 52.13267 | 12.65024 | 2968 ft | 178 kts | 352° |
| 2026-05-07 20:45 | 52.14459 | 12.65293 | 2981 ft | 176 kts | 30° |
| 2026-05-07 20:45 | 52.15270 | 12.66701 | 2983 ft | 172 kts | 68° |
| 2026-05-07 20:46 | 52.15659 | 12.68556 | 2982 ft | 173 kts | 72° |
| 2026-05-07 20:46 | 52.16038 | 12.70413 | 2981 ft | 172 kts | 71° |
| 2026-05-07 20:46 | 52.16451 | 12.72250 | 2980 ft | 173 kts | 69° |
| 2026-05-07 20:46 | 52.16891 | 12.74072 | 2981 ft | 173 kts | 68° |
| 2026-05-07 20:47 | 52.17344 | 12.75888 | 2981 ft | 173 kts | 68° |
| 2026-05-07 20:47 | 52.17799 | 12.77703 | 2981 ft | 173 kts | 68° |
| 2026-05-07 20:47 | 52.18254 | 12.79517 | 2979 ft | 173 kts | 68° |
| 2026-05-07 20:47 | 52.18706 | 12.81336 | 2979 ft | 173 kts | 68° |
| 2026-05-07 20:48 | 52.19156 | 12.83154 | 2984 ft | 173 kts | 68° |
| 2026-05-07 20:48 | 52.19605 | 12.84969 | 2983 ft | 172 kts | 68° |
| 2026-05-07 20:48 | 52.20052 | 12.86790 | 2980 ft | 173 kts | 68° |
| 2026-05-07 20:48 | 52.20499 | 12.88607 | 2982 ft | 173 kts | 68° |
| 2026-05-07 20:49 | 52.20945 | 12.90423 | 2979 ft | 173 kts | 68° |
| 2026-05-07 20:49 | 52.21240 | 12.91625 | 2982 ft | 173 kts | 68° |
| 2026-05-07 20:49 | 52.21830 | 12.94040 | 2982 ft | 170 kts | 68° |
| 2026-05-07 20:49 | 52.22270 | 12.95842 | 2979 ft | 171 kts | 68° |
| 2026-05-07 20:50 | 52.22708 | 12.97638 | 2984 ft | 171 kts | 68° |
| 2026-05-07 20:50 | 52.23147 | 12.99438 | 2982 ft | 171 kts | 68° |
| 2026-05-07 20:50 | 52.23585 | 13.01238 | 2981 ft | 170 kts | 68° |
| 2026-05-07 20:50 | 52.24022 | 13.03037 | 2989 ft | 171 kts | 68° |
| 2026-05-07 20:51 | 52.24459 | 13.04835 | 2986 ft | 171 kts | 68° |
| 2026-05-07 20:51 | 52.24889 | 13.06610 | 2987 ft | 171 kts | 68° |
| 2026-05-07 20:51 | 52.25326 | 13.08412 | 2985 ft | 170 kts | 68° |
| 2026-05-07 20:51 | 52.25762 | 13.10211 | 2986 ft | 171 kts | 68° |
| 2026-05-07 20:52 | 52.26197 | 13.12011 | 2987 ft | 170 kts | 68° |
| 2026-05-07 20:52 | 52.26645 | 13.13800 | 2992 ft | 170 kts | 66° |
| 2026-05-07 20:52 | 52.27103 | 13.15587 | 2997 ft | 170 kts | 68° |
| 2026-05-07 20:52 | 52.27532 | 13.17393 | 2998 ft | 171 kts | 69° |
| 2026-05-07 20:53 | 52.27965 | 13.19215 | 2995 ft | 172 kts | 68° |
| 2026-05-07 20:53 | 52.28397 | 13.21026 | 2997 ft | 171 kts | 69° |
| 2026-05-07 20:53 | 52.28831 | 13.22846 | 2997 ft | 172 kts | 68° |
| 2026-05-07 20:53 | 52.29264 | 13.24662 | 2999 ft | 172 kts | 69° |
| 2026-05-07 20:54 | 52.29557 | 13.25898 | 2923 ft | 173 kts | 68° |
| 2026-05-07 20:54 | 52.29991 | 13.27721 | 2695 ft | 171 kts | 68° |
| 2026-05-07 20:54 | 52.30414 | 13.29499 | 2465 ft | 167 kts | 68° |
| 2026-05-07 20:54 | 52.30844 | 13.31301 | 2220 ft | 169 kts | 68° |
| 2026-05-07 20:55 | 52.31260 | 13.33051 | 2008 ft | 170 kts | 68° |
| 2026-05-07 20:55 | 52.31685 | 13.34845 | 1764 ft | 166 kts | 68° |
| 2026-05-07 20:55 | 52.32103 | 13.36593 | 1548 ft | 162 kts | 68° |
| 2026-05-07 20:55 | 52.32498 | 13.38262 | 1451 ft | 156 kts | 68° |
| 2026-05-07 20:56 | 52.32889 | 13.39898 | 1799 ft | 160 kts | 68° |
| 2026-05-07 20:56 | 52.33347 | 13.41766 | 1042 ft | 187 kts | 66° |
| 2026-05-07 20:56 | 52.33810 | 13.43690 | 656 ft | 173 kts | 69° |
| 2026-05-07 20:56 | 52.34217 | 13.45439 | 382 ft | 159 kts | 69° |
| 2026-05-07 20:57 | 52.34636 | 13.47216 | 162 ft | 147 kts | 68° |
| 2026-05-07 20:57 | 52.34892 | 13.48269 | 160 ft | 70 kts | 68° |
| 2026-05-07 20:57 | 52.34995 | 13.48694 | 160 ft | 17 kts | 69° |
| 2026-05-07 20:57 | 52.35045 | 13.48912 | 160 ft | 58 kts | 69° |
| 2026-05-07 20:58 | 52.35202 | 13.49598 | 160 ft | 58 kts | 69° |
| 2026-05-07 20:58 | 52.35393 | 13.50017 | 160 ft | 15 kts | 38° |
| 2026-05-07 20:58 | 52.35481 | 13.50131 | 160 ft | 18 kts | 38° |
| 2026-05-07 20:58 | 52.35574 | 13.50256 | 160 ft | 17 kts | 44° |
| 2026-05-07 20:59 | 52.35631 | 13.50427 | 160 ft | 17 kts | 66° |
| 2026-05-07 20:59 | 52.35672 | 13.50590 | 160 ft | 12 kts | 68° |
| 2026-05-07 20:59 | 52.35679 | 13.50619 | 160 ft | 1 kts | 68° |
| 2026-05-07 20:59 | 52.35698 | 13.50656 | 160 ft | 15 kts | 45° |
| 2026-05-07 21:00 | 52.35781 | 13.50729 | 160 ft | 12 kts | 50° |
| 2026-05-07 21:00 | 52.35802 | 13.50751 | 160 ft | 0 kts | 33° |
| 2026-05-07 21:00 | 52.35826 | 13.50763 | 160 ft | 6 kts | 14° |
| 2026-05-07 21:00 | 52.35871 | 13.50755 | 160 ft | 6 kts | 349° |
| 2026-05-07 21:01 | 52.35919 | 13.50732 | 160 ft | 10 kts | 342° |
| 2026-05-07 21:01 | 52.35987 | 13.50690 | 160 ft | 11 kts | 338° |
| 2026-05-07 21:01 | 52.36017 | 13.50671 | 160 ft | 4 kts | 339° |
| 2026-05-07 21:01 | 52.36055 | 13.50689 | 160 ft | 6 kts | 22° |
| 2026-05-07 21:02 | 52.36078 | 13.50738 | 160 ft | 5 kts | 59° |
| 2026-05-07 21:02 | 52.36089 | 13.50771 | 160 ft | 0 kts | 62° |